Time;durP1;ratioP1;P1;durP2;ratioP2;P2;SDS_P1;SDS_P2;PMS_P1;PMS_P2;Temp;Humidity;BMP_temperature;BMP_pressure;BME280_temperature;BME280_humidity;BME280_pressure;Samples;Min_cycle;Max_cycle;Signal;HPM_P1;HPM_P2
2023/10/20 00:02:33;;;;;;;71.90;44.90;;;;;;;9.92;100.00;98195.80;176603;1265;46015;-79
2023/10/20 00:06:39;;;;;;;77.60;47.80;;;;;;;9.91;100.00;98205.71;177679;1265;46004;-77
2023/10/20 00:10:42;;;;;;;74.60;46.00;;;;;;;9.90;100.00;98203.08;177281;1265;46005;-79
2023/10/20 00:14:45;;;;;;;85.60;46.20;;;;;;;9.84;100.00;98191.57;178272;1265;46130;-80
2023/10/20 00:18:47;;;;;;;81.70;49.00;;;;;;;9.80;100.00;98199.72;177904;1265;59303;-80
2023/10/20 00:22:50;;;;;;;69.80;47.10;;;;;;;9.76;100.00;98202.66;176693;1264;46122;-80
2023/10/20 00:26:53;;;;;;;77.50;46.30;;;;;;;9.76;100.00;98205.85;177627;1268;46133;-80
2023/10/20 00:30:56;;;;;;;65.10;46.10;;;;;;;9.77;100.00;98213.15;177107;1265;46553;-80
2023/10/20 00:35:00;;;;;;;68.60;44.60;;;;;;;9.77;100.00;98208.20;176993;1266;46127;-79
2023/10/20 00:39:03;;;;;;;81.10;44.00;;;;;;;9.77;100.00;98211.88;177841;1266;58203;-78
2023/10/20 00:43:06;;;;;;;76.20;43.90;;;;;;;9.75;100.00;98207.23;179460;1264;44240;-79
2023/10/20 00:47:10;;;;;;;86.50;49.10;;;;;;;9.75;100.00;98212.86;176638;1265;47635;-80
2023/10/20 00:51:13;;;;;;;85.40;49.30;;;;;;;9.73;100.00;98216.77;176470;1264;46056;-79
2023/10/20 00:55:18;;;;;;;79.90;47.70;;;;;;;9.70;100.00;98213.58;178577;1264;46001;-78
2023/10/20 00:59:21;;;;;;;74.90;48.00;;;;;;;9.66;100.00;98197.55;176696;1265;57627;-79
2023/10/20 01:03:24;;;;;;;76.10;47.20;;;;;;;9.58;100.00;98176.48;178492;1265;45065;-79
2023/10/20 01:07:28;;;;;;;83.60;52.20;;;;;;;9.52;100.00;98166.71;178629;1265;44493;-78
2023/10/20 01:11:31;;;;;;;81.30;46.20;;;;;;;9.45;100.00;98172.55;178233;1265;45969;-78
2023/10/20 01:15:36;;;;;;;84.00;54.70;;;;;;;9.45;100.00;98175.38;176624;1265;46481;-79
2023/10/20 01:19:40;;;;;;;83.70;48.00;;;;;;;9.43;100.00;98167.86;177596;1266;59299;-78
2023/10/20 01:23:44;;;;;;;86.70;52.90;;;;;;;9.49;100.00;98159.02;176827;1268;46215;-79
2023/10/20 01:27:47;;;;;;;82.50;49.70;;;;;;;9.53;100.00;98146.87;177283;1268;46039;-78
2023/10/20 01:31:50;;;;;;;80.80;49.10;;;;;;;9.46;100.00;98142.02;178539;1265;46112;-79
2023/10/20 01:35:53;;;;;;;86.80;52.20;;;;;;;9.46;100.00;98148.92;176406;1265;44329;-78
2023/10/20 01:39:56;;;;;;;90.50;54.10;;;;;;;9.53;100.00;98165.15;177750;1265;59300;-79
2023/10/20 01:43:59;;;;;;;92.10;55.10;;;;;;;9.59;100.00;98157.98;177492;1265;46126;-79
2023/10/20 01:48:02;;;;;;;86.10;49.90;;;;;;;9.59;100.00;98145.54;179270;1265;45465;-78
2023/10/20 01:52:05;;;;;;;81.80;45.60;;;;;;;9.63;100.00;98133.49;178503;1265;46024;-79
2023/10/20 01:56:08;;;;;;;84.70;48.40;;;;;;;9.66;100.00;98128.00;179066;1265;45986;-79
2023/10/20 02:00:15;;;;;;;85.20;44.90;;;;;;;9.67;100.00;98124.35;178888;1265;58722;-78
2023/10/20 02:04:17;;;;;;;83.10;46.90;;;;;;;9.70;100.00;98109.17;180343;1265;43900;-79
2023/10/20 02:08:20;;;;;;;71.90;44.40;;;;;;;9.69;100.00;98104.66;179225;1268;219629;-78
2023/10/20 02:12:23;;;;;;;77.80;46.20;;;;;;;9.70;100.00;98105.02;180127;1265;44070;-78
2023/10/20 02:16:26;;;;;;;80.20;45.70;;;;;;;9.67;100.00;98102.71;177429;1269;46228;-77
2023/10/20 02:20:29;;;;;;;92.60;50.80;;;;;;;9.66;100.00;98091.04;179009;1265;59476;-79
2023/10/20 02:24:32;;;;;;;95.60;47.80;;;;;;;9.63;100.00;98089.41;179258;1265;46050;-78
2023/10/20 02:28:36;;;;;;;78.30;44.50;;;;;;;9.55;100.00;98102.07;179101;1265;46099;-78
2023/10/20 02:32:40;;;;;;;78.50;47.60;;;;;;;9.52;100.00;98098.73;177947;1266;46017;-78
2023/10/20 02:36:43;;;;;;;91.50;46.70;;;;;;;9.48;100.00;98093.22;179096;1265;46125;-79
2023/10/20 02:40:54;;;;;;;93.80;50.20;;;;;;;9.44;100.00;98088.45;177149;1265;60135;-79
2023/10/20 02:44:57;;;;;;;89.40;48.80;;;;;;;9.41;100.00;98096.39;177755;1265;45995;-79
2023/10/20 02:49:00;;;;;;;82.80;47.50;;;;;;;9.40;100.00;98097.45;177498;1265;46056;-77
2023/10/20 02:53:03;;;;;;;77.70;50.40;;;;;;;9.41;100.00;98086.10;177687;1268;47487;-79
2023/10/20 02:57:06;;;;;;;83.50;48.80;;;;;;;9.42;100.00;98084.20;177390;1265;46097;-79
2023/10/20 03:01:11;;;;;;;76.00;49.60;;;;;;;9.45;100.00;98078.84;178115;1265;57740;-78
2023/10/20 03:05:15;;;;;;;80.00;44.70;;;;;;;9.40;100.00;98076.55;177946;1265;46129;-78
2023/10/20 03:09:18;;;;;;;82.50;48.40;;;;;;;9.40;100.00;98075.16;177621;1265;46041;-79
2023/10/20 03:13:22;;;;;;;92.10;49.50;;;;;;;9.44;100.00;98072.20;178145;1264;46435;-78
2023/10/20 03:17:26;;;;;;;80.50;50.80;;;;;;;9.44;100.00;98069.96;176684;1264;46140;-78
2023/10/20 03:21:30;;;;;;;81.30;48.50;;;;;;;9.44;100.00;98087.23;177367;1267;59851;-79
2023/10/20 03:25:33;;;;;;;85.60;48.30;;;;;;;9.43;100.00;98093.23;177194;1265;45949;-79
2023/10/20 03:29:36;;;;;;;84.60;47.80;;;;;;;9.44;100.00;98082.15;177580;1265;46053;-81
2023/10/20 03:33:39;;;;;;;81.60;48.70;;;;;;;9.43;100.00;98082.36;179067;1265;46614;-81
2023/10/20 03:37:43;;;;;;;84.50;46.70;;;;;;;9.45;100.00;98087.83;179915;1265;44049;-79
2023/10/20 03:41:47;;;;;;;78.80;48.70;;;;;;;9.49;100.00;98084.92;180038;1266;59496;-79
2023/10/20 03:45:53;;;;;;;77.70;49.80;;;;;;;9.49;100.00;98078.55;178094;1265;46013;-80
2023/10/20 03:50:00;;;;;;;82.30;47.00;;;;;;;9.52;100.00;98075.58;177353;1265;45988;-80
2023/10/20 03:54:05;;;;;;;79.60;43.70;;;;;;;9.52;100.00;98073.13;178267;1265;46111;-81
2023/10/20 03:58:08;;;;;;;89.10;48.30;;;;;;;9.53;100.00;98083.80;176219;1266;46127;-79
2023/10/20 04:02:11;;;;;;;69.70;45.10;;;;;;;9.51;100.00;98080.49;178060;1268;59026;-78
2023/10/20 04:06:14;;;;;;;74.10;44.00;;;;;;;9.47;100.00;98076.70;178302;1265;44128;-80
2023/10/20 04:10:20;;;;;;;79.40;47.80;;;;;;;9.47;100.00;98086.27;178696;1265;46168;-79
2023/10/20 04:14:23;;;;;;;84.80;50.10;;;;;;;9.49;100.00;98092.48;178448;1265;46006;-80
2023/10/20 04:18:26;;;;;;;75.40;46.80;;;;;;;9.47;100.00;98076.96;176281;1266;45278;-80
2023/10/20 04:22:29;;;;;;;73.70;44.40;;;;;;;9.44;100.00;98065.14;177957;1264;58066;-79
2023/10/20 04:26:33;;;;;;;87.20;47.90;;;;;;;9.38;100.00;98064.20;178035;1265;46032;-80
2023/10/20 04:43:42;;;;;;;75.80;43.50;;;;;;;9.44;100.00;98068.33;177226;1266;58256;-81
2023/10/20 04:48:15;;;;;;;84.20;46.70;;;;;;;9.42;100.00;98059.67;178480;1266;44856;-80
2023/10/20 04:52:55;;;;;;;72.80;45.50;;;;;;;9.42;100.00;98051.50;178703;1265;46048;-80
2023/10/20 05:05:44;;;;;;;73.00;45.30;;;;;;;9.34;100.00;98027.20;177939;1269;58235;-80
2023/10/20 05:09:54;;;;;;;72.40;46.20;;;;;;;9.34;100.00;98033.94;179830;1267;43916;-80
2023/10/20 05:13:57;;;;;;;77.60;47.40;;;;;;;9.32;100.00;98037.86;178810;1266;46021;-80
2023/10/20 05:18:00;;;;;;;73.20;45.20;;;;;;;9.26;100.00;98045.31;178383;1268;45978;-79
2023/10/20 05:22:04;;;;;;;75.90;46.30;;;;;;;9.26;100.00;98042.17;176797;1271;45956;-79
2023/10/20 05:26:09;;;;;;;78.10;46.60;;;;;;;9.25;100.00;98031.66;175929;1270;59321;-80
2023/10/20 05:30:13;;;;;;;79.30;45.90;;;;;;;9.24;100.00;98019.25;177852;1265;46017;-78
2023/10/20 05:34:16;;;;;;;66.00;44.50;;;;;;;9.22;100.00;98023.20;177492;1265;46883;-79
2023/10/20 05:38:19;;;;;;;84.20;49.30;;;;;;;9.22;100.00;98022.48;178095;1266;46325;-80
2023/10/20 05:42:22;;;;;;;73.80;44.40;;;;;;;9.22;100.00;98017.54;179379;1266;43812;-80
2023/10/20 05:46:25;;;;;;;79.90;49.80;;;;;;;9.23;100.00;98021.08;177305;1267;58564;-80
2023/10/20 05:50:28;;;;;;;73.10;44.00;;;;;;;9.25;100.00;98022.34;177602;1265;46603;-80
2023/10/20 05:54:31;;;;;;;82.20;50.20;;;;;;;9.22;100.00;98025.59;177145;1268;44255;-80
2023/10/20 05:58:35;;;;;;;72.40;45.20;;;;;;;9.24;100.00;98019.55;176989;1269;46022;-79
2023/10/20 06:02:38;;;;;;;72.20;45.40;;;;;;;9.23;100.00;98011.70;176084;1265;46019;-79
2023/10/20 06:06:41;;;;;;;77.00;46.30;;;;;;;9.22;100.00;98019.92;176425;1269;58799;-79
2023/10/20 06:10:46;;;;;;;82.50;50.50;;;;;;;9.26;100.00;98024.20;176627;1266;46337;-78
2023/10/20 06:14:49;;;;;;;77.50;49.50;;;;;;;9.21;100.00;98018.70;176771;1267;45997;-80
2023/10/20 06:18:52;;;;;;;88.50;50.60;;;;;;;9.20;100.00;98018.98;177858;1269;46140;-80
2023/10/20 06:22:56;;;;;;;78.40;49.70;;;;;;;9.15;100.00;98013.53;178522;1265;46597;-80
2023/10/20 06:27:02;;;;;;;85.20;48.90;;;;;;;9.13;100.00;98009.98;175818;1269;60443;-80
2023/10/20 06:31:58;;;;;;;85.50;52.40;;;;;;;9.14;100.00;98008.98;176115;1265;46105;-80
2023/10/20 06:35:32;;;;;;;82.50;49.60;;;;;;;9.21;100.00;98008.95;177700;1266;46307;-80
2023/10/20 06:39:38;;;;;;;80.20;49.90;;;;;;;9.20;100.00;97990.04;177482;1269;46163;-78
2023/10/20 06:43:43;;;;;;;80.50;48.70;;;;;;;9.23;100.00;97985.05;177422;1267;46123;-79
2023/10/20 06:47:46;;;;;;;81.50;48.90;;;;;;;9.24;100.00;97975.95;177607;1267;60126;-79
2023/10/20 06:51:49;;;;;;;74.50;47.20;;;;;;;9.22;100.00;97966.81;177842;1267;46222;-79
2023/10/20 06:55:52;;;;;;;76.00;50.00;;;;;;;9.23;100.00;97957.33;176788;1267;46122;-79
2023/10/20 07:00:17;;;;;;;78.50;48.30;;;;;;;9.25;100.00;97964.17;177532;1266;46131;-79
2023/10/20 07:04:21;;;;;;;78.30;46.90;;;;;;;9.30;100.00;97971.91;178888;1267;46059;-79
2023/10/20 07:08:24;;;;;;;72.90;42.40;;;;;;;9.35;100.00;97975.92;178281;1267;57227;-79
2023/10/20 07:12:27;;;;;;;74.90;42.00;;;;;;;9.38;100.00;97979.48;178977;1265;46136;-79
2023/10/20 07:16:31;;;;;;;74.60;46.70;;;;;;;9.39;100.00;97966.15;176966;1266;46116;-78
2023/10/20 07:20:38;;;;;;;64.80;40.80;;;;;;;9.41;100.00;97946.07;177399;1266;46052;-80
2023/10/20 07:24:42;;;;;;;68.60;40.50;;;;;;;9.45;100.00;97925.13;179574;1267;45920;-79
2023/10/20 07:28:46;;;;;;;63.00;42.90;;;;;;;9.46;100.00;97920.98;178613;1267;59012;-79
2023/10/20 07:32:51;;;;;;;64.80;40.70;;;;;;;9.44;100.00;97915.17;177581;1269;45998;-80
2023/10/20 07:36:54;;;;;;;62.70;41.40;;;;;;;9.44;100.00;97913.15;179346;1269;44267;-80
2023/10/20 07:41:07;;;;;;;65.30;40.70;;;;;;;9.45;100.00;97914.84;178497;1267;44200;-80
2023/10/20 07:45:11;;;;;;;56.90;39.20;;;;;;;9.47;100.00;97904.34;177953;1267;46001;-80
2023/10/20 07:49:15;;;;;;;65.00;40.50;;;;;;;9.47;100.00;97895.55;176487;1266;59434;-79
2023/10/20 07:53:18;;;;;;;54.50;40.30;;;;;;;9.45;100.00;97891.33;176948;1265;46017;-80
2023/10/20 07:57:24;;;;;;;63.90;37.40;;;;;;;9.48;100.00;97889.94;179118;1265;44074;-80
2023/10/20 08:01:27;;;;;;;66.50;40.00;;;;;;;9.53;100.00;97895.48;178137;1267;46090;-79
2023/10/20 08:05:30;;;;;;;55.90;39.70;;;;;;;9.57;100.00;97893.94;178528;1267;45993;-80
2023/10/20 08:09:34;;;;;;;64.20;39.10;;;;;;;9.57;100.00;97889.36;177722;1267;58226;-79
2023/10/20 08:13:38;;;;;;;59.50;39.60;;;;;;;9.64;100.00;97888.41;178810;1266;46023;-79
2023/10/20 08:17:44;;;;;;;57.30;38.90;;;;;;;9.65;100.00;97881.41;178766;1266;46054;-79
2023/10/20 08:21:47;;;;;;;54.40;37.30;;;;;;;9.67;100.00;97861.23;178666;1265;46035;-80
2023/10/20 08:25:50;;;;;;;54.80;37.90;;;;;;;9.69;100.00;97854.96;178916;1265;46213;-79
2023/10/20 08:29:56;;;;;;;56.60;35.40;;;;;;;9.72;100.00;97860.80;178073;1266;59231;-79
2023/10/20 08:34:01;;;;;;;62.90;36.90;;;;;;;9.80;100.00;97843.04;177570;1267;46016;-79
2023/10/20 08:38:04;;;;;;;62.80;40.20;;;;;;;9.78;100.00;97834.89;176557;1265;46046;-78
2023/10/20 08:42:18;;;;;;;57.00;37.40;;;;;;;9.84;100.00;97841.18;177973;1265;45998;-80
2023/10/20 08:46:24;;;;;;;56.10;35.30;;;;;;;9.83;100.00;97832.43;177507;1266;46163;-80
2023/10/20 08:50:31;;;;;;;62.30;37.40;;;;;;;9.87;100.00;97817.38;178095;1266;58320;-79
2023/10/20 08:54:34;;;;;;;54.90;36.00;;;;;;;9.91;100.00;97804.23;176020;1270;46000;-80
2023/10/20 08:58:38;;;;;;;67.50;39.30;;;;;;;9.90;100.00;97803.09;178158;1266;46029;-79
2023/10/20 09:02:41;;;;;;;51.90;35.30;;;;;;;9.88;100.00;97798.44;178429;1265;46009;-79
2023/10/20 09:06:44;;;;;;;66.30;39.40;;;;;;;9.82;100.00;97783.08;177970;1265;44120;-80
2023/10/20 09:10:47;;;;;;;57.90;38.50;;;;;;;9.84;100.00;97793.02;178692;1265;60071;-80
2023/10/20 09:14:50;;;;;;;63.60;39.70;;;;;;;9.90;100.00;97794.24;178745;1266;44206;-81
2023/10/20 09:18:54;;;;;;;58.90;37.60;;;;;;;9.92;100.00;97794.36;176939;1265;46150;-79
2023/10/20 09:22:57;;;;;;;67.60;40.90;;;;;;;9.95;100.00;97802.86;178527;1265;44136;-79
2023/10/20 09:27:02;;;;;;;60.30;35.80;;;;;;;9.98;100.00;97804.45;177609;1265;45911;-79
2023/10/20 09:31:08;;;;;;;67.30;41.10;;;;;;;10.05;100.00;97803.48;177344;1264;59848;-79
2023/10/20 09:35:13;;;;;;;60.30;39.70;;;;;;;10.13;100.00;97798.13;178642;1265;46010;-79
2023/10/20 09:39:24;;;;;;;60.70;38.40;;;;;;;10.16;100.00;97798.57;177646;1265;44862;-79
2023/10/20 09:43:32;;;;;;;61.20;37.40;;;;;;;10.18;100.00;97798.02;178275;1265;44113;-79
2023/10/20 09:47:36;;;;;;;62.70;38.40;;;;;;;10.16;100.00;97781.41;177027;1266;45297;-79
2023/10/20 09:51:44;;;;;;;63.60;38.10;;;;;;;10.16;100.00;97769.15;176578;1265;58197;-78
2023/10/20 09:55:47;;;;;;;51.30;35.50;;;;;;;10.20;100.00;97758.71;178332;1265;46246;-80
2023/10/20 09:59:54;;;;;;;53.40;35.90;;;;;;;10.26;100.00;97763.55;176051;1265;46111;-79
2023/10/20 10:04:03;;;;;;;;;;;;;;;10.32;100.00;97763.80;177533;1265;45996;-79
2023/10/20 10:08:10;;;;;;;54.90;34.30;;;;;;;10.28;100.00;97757.29;177703;1265;45668;-79
2023/10/20 10:12:19;;;;;;;54.10;33.70;;;;;;;10.28;100.00;97762.83;177208;1265;57668;-78
2023/10/20 10:16:22;;;;;;;59.80;35.50;;;;;;;10.34;100.00;97762.00;176309;1265;46137;-79
2023/10/20 10:20:26;;;;;;;46.10;33.50;;;;;;;10.31;100.00;97766.38;176336;1265;44900;-79
2023/10/20 10:24:31;;;;;;;51.50;33.30;;;;;;;10.33;100.00;97761.66;177315;1265;46214;-79
2023/10/20 10:28:35;;;;;;;54.20;32.70;;;;;;;10.35;100.00;97751.05;177187;1265;46133;-79
2023/10/20 10:32:51;;;;;;;53.00;32.90;;;;;;;10.41;100.00;97754.17;177289;1265;57385;-79
2023/10/20 10:36:57;;;;;;;39.50;28.50;;;;;;;10.41;100.00;97753.97;176177;1266;46203;-78
2023/10/20 10:41:00;;;;;;;55.00;33.00;;;;;;;10.47;100.00;97747.14;176501;1265;46134;-79
2023/10/20 10:45:17;;;;;;;40.70;30.20;;;;;;;10.47;100.00;97739.73;176829;1267;46026;-78
2023/10/20 10:49:20;;;;;;;48.20;32.40;;;;;;;10.49;100.00;97725.80;176470;1268;46006;-79
2023/10/20 10:53:26;;;;;;;51.70;32.00;;;;;;;10.48;100.00;97725.27;177020;1265;59693;-78
2023/10/20 10:57:30;;;;;;;54.10;33.50;;;;;;;10.53;100.00;97721.27;177345;1264;45981;-79
2023/10/20 11:01:33;;;;;;;49.90;33.30;;;;;;;10.52;100.00;97700.77;177061;1265;44045;-79
2023/10/20 11:05:37;;;;;;;44.20;31.70;;;;;;;10.53;100.00;97688.47;176940;1264;46192;-80
2023/10/20 11:09:41;;;;;;;54.40;34.30;;;;;;;10.53;100.00;97679.64;176738;1264;46157;-80
2023/10/20 11:13:44;;;;;;;45.10;31.70;;;;;;;10.56;100.00;97681.91;178563;1265;59429;-80
2023/10/20 11:17:49;;;;;;;46.60;34.90;;;;;;;10.55;100.00;97683.88;176907;1265;46039;-80
2023/10/20 11:21:52;;;;;;;59.10;32.10;;;;;;;10.59;100.00;97686.81;177680;1265;46537;-80
2023/10/20 11:25:57;;;;;;;57.10;38.40;;;;;;;10.64;100.00;97699.30;176795;1265;46060;-79
2023/10/20 11:30:00;;;;;;;53.70;34.50;;;;;;;10.68;100.00;97697.04;176876;1268;46010;-80
2023/10/20 11:34:03;;;;;;;53.30;33.50;;;;;;;10.71;100.00;97686.44;176824;1265;57490;-79
2023/10/20 11:38:06;;;;;;;51.70;34.20;;;;;;;10.74;100.00;97685.36;178166;1265;48630;-80
2023/10/20 11:42:11;;;;;;;48.50;33.40;;;;;;;10.77;100.00;97696.64;177467;1265;46056;-80
2023/10/20 11:46:14;;;;;;;49.40;30.50;;;;;;;10.79;100.00;97707.38;178350;1265;46131;-80
2023/10/20 11:50:21;;;;;;;47.10;30.10;;;;;;;10.74;100.00;97705.57;179662;1265;45985;-80
2023/10/20 11:54:24;;;;;;;48.20;31.10;;;;;;;10.74;100.00;97709.59;177800;1264;59960;-80
2023/10/20 11:58:28;;;;;;;49.40;33.50;;;;;;;10.77;100.00;97697.38;176922;1264;46063;-80
2023/10/20 12:02:31;;;;;;;57.70;34.90;;;;;;;10.74;100.00;97692.64;177845;1265;46199;-80
2023/10/20 12:06:38;;;;;;;55.50;33.50;;;;;;;10.78;100.00;97674.89;178664;1264;46060;-80
2023/10/20 12:10:41;;;;;;;52.40;35.80;;;;;;;10.86;100.00;97673.07;177830;1265;44799;-81
2023/10/20 12:14:44;;;;;;;56.00;34.80;;;;;;;10.94;100.00;97682.17;177868;1264;58298;-79
2023/10/20 12:18:48;;;;;;;54.50;36.90;;;;;;;11.01;100.00;97685.58;177867;1266;46159;-80
2023/10/20 12:22:55;;;;;;;53.80;33.70;;;;;;;11.01;100.00;97673.99;178542;1264;46005;-80
2023/10/20 12:26:59;;;;;;;50.90;32.00;;;;;;;10.98;100.00;97667.60;177317;1265;46309;-80
2023/10/20 12:31:02;;;;;;;52.50;30.80;;;;;;;11.00;100.00;97661.88;177753;1265;46137;-77
2023/10/20 12:35:05;;;;;;;56.70;35.10;;;;;;;11.05;100.00;97654.96;177426;1268;58522;-79
2023/10/20 12:39:09;;;;;;;66.00;35.20;;;;;;;11.07;100.00;97654.15;176707;1264;46026;-78
2023/10/20 12:43:12;;;;;;;57.60;34.10;;;;;;;11.04;100.00;97642.64;177571;1264;46006;-80
2023/10/20 12:47:19;;;;;;;66.40;38.60;;;;;;;11.05;100.00;97631.84;176072;1269;46026;-79
2023/10/20 12:51:22;;;;;;;61.10;35.70;;;;;;;11.07;100.00;97639.63;177815;1267;45902;-79
2023/10/20 12:55:26;;;;;;;64.00;39.90;;;;;;;11.07;100.00;97636.56;176750;1266;58049;-80
2023/10/20 12:59:28;;;;;;;51.20;34.60;;;;;;;11.08;100.00;97619.75;178047;1265;46141;-80
2023/10/20 13:03:32;;;;;;;59.70;36.60;;;;;;;11.08;100.00;97610.61;176210;1265;46130;-80
2023/10/20 13:07:35;;;;;;;77.50;38.40;;;;;;;11.12;100.00;97601.36;177521;1264;45963;-79
2023/10/20 13:11:39;;;;;;;69.60;39.30;;;;;;;11.17;100.00;97597.86;177351;1265;46119;-79
2023/10/20 13:15:43;;;;;;;59.10;36.70;;;;;;;11.24;100.00;97598.40;177989;1264;58481;-79
2023/10/20 13:19:46;;;;;;;62.00;39.50;;;;;;;11.30;100.00;97592.58;178659;1264;45983;-79
2023/10/20 13:23:50;;;;;;;52.00;34.80;;;;;;;11.34;100.00;97589.89;177768;1264;44117;-78
2023/10/20 13:27:53;;;;;;;48.80;32.70;;;;;;;11.36;100.00;97592.46;176607;1265;46748;-79
2023/10/20 13:31:56;;;;;;;60.10;36.00;;;;;;;11.40;100.00;97589.63;177587;1265;46267;-78
2023/10/20 13:36:04;;;;;;;60.80;37.70;;;;;;;11.43;100.00;97589.49;178281;1264;58439;-78
2023/10/20 13:40:09;;;;;;;48.90;34.00;;;;;;;11.45;100.00;97603.79;180243;1268;44056;-78
2023/10/20 13:44:12;;;;;;;50.20;34.90;;;;;;;11.45;100.00;97611.85;178251;1266;46152;-79
2023/10/20 13:48:15;;;;;;;55.20;34.00;;;;;;;11.49;100.00;97604.70;179306;1265;44038;-80
2023/10/20 13:52:18;;;;;;;52.80;35.70;;;;;;;11.50;100.00;97601.60;177759;1268;46157;-80
2023/10/20 13:56:21;;;;;;;55.60;34.60;;;;;;;11.48;100.00;97592.53;177688;1265;59548;-80
2023/10/20 14:00:24;;;;;;;50.60;33.70;;;;;;;11.48;100.00;97581.72;178043;1265;56286;-80
2023/10/20 14:04:27;;;;;;;54.30;34.00;;;;;;;11.47;100.00;97572.05;178248;1267;46009;-79
2023/10/20 14:08:30;;;;;;;67.60;34.30;;;;;;;11.47;100.00;97568.36;177716;1265;292399;-79
2023/10/20 14:12:35;;;;;;;49.30;31.80;;;;;;;11.46;100.00;97567.92;176691;1268;46210;-78
2023/10/20 14:16:38;;;;;;;59.40;34.90;;;;;;;11.47;100.00;97568.33;178008;1265;59443;-80
2023/10/20 14:20:42;;;;;;;50.80;31.40;;;;;;;11.48;100.00;97568.38;180059;1265;43844;-80
2023/10/20 14:24:45;;;;;;;64.30;36.60;;;;;;;11.51;100.00;97577.80;177752;1265;44963;-79
2023/10/20 14:28:48;;;;;;;59.30;35.80;;;;;;;11.50;100.00;97574.56;176427;1268;46053;-78
2023/10/20 14:32:51;;;;;;;52.20;36.40;;;;;;;11.50;100.00;97583.54;177882;1269;44189;-80
2023/10/20 14:36:54;;;;;;;63.90;41.00;;;;;;;11.49;100.00;97568.50;178378;1265;58241;-80
2023/10/20 14:41:04;;;;;;;59.60;37.20;;;;;;;11.51;100.00;97571.22;178673;1265;44289;-80
2023/10/20 14:45:07;;;;;;;63.90;39.30;;;;;;;11.58;100.00;97585.90;176395;1268;46360;-80
2023/10/20 14:49:11;;;;;;;67.90;39.60;;;;;;;11.61;100.00;97575.10;177604;1265;46000;-80
2023/10/20 14:53:14;;;;;;;63.00;41.30;;;;;;;11.64;100.00;97585.15;177955;1264;44477;-81
2023/10/20 14:57:17;;;;;;;64.20;42.30;;;;;;;11.66;100.00;97599.36;178216;1264;58298;-79
2023/10/20 15:01:24;;;;;;;59.80;40.50;;;;;;;11.69;100.00;97619.66;177809;1264;46141;-80
2023/10/20 15:05:27;;;;;;;60.70;39.90;;;;;;;11.72;100.00;97615.78;179151;1265;46445;-79
2023/10/20 15:09:30;;;;;;;91.10;46.50;;;;;;;11.78;100.00;97625.50;177580;1264;46114;-80
2023/10/20 15:13:34;;;;;;;75.70;46.10;;;;;;;11.84;100.00;97614.55;178936;1265;46098;-78
2023/10/20 15:17:37;;;;;;;67.00;42.90;;;;;;;11.87;100.00;97600.46;176279;1265;58254;-79
2023/10/20 15:21:40;;;;;;;73.00;42.50;;;;;;;11.78;100.00;97583.42;178429;1265;46114;-79
2023/10/20 15:25:43;;;;;;;63.60;42.40;;;;;;;11.72;100.00;97580.75;178137;1267;46053;-78
2023/10/20 15:29:46;;;;;;;63.50;41.20;;;;;;;11.67;100.00;97561.40;177531;1265;46404;-79
2023/10/20 15:33:49;;;;;;;65.50;43.90;;;;;;;11.70;100.00;97563.82;177444;1264;46172;-79
2023/10/20 15:37:52;;;;;;;68.40;44.90;;;;;;;11.72;100.00;97582.27;177639;1265;58281;-80
2023/10/20 15:41:56;;;;;;;80.70;46.00;;;;;;;11.75;100.00;97605.84;178005;1264;46096;-81
2023/10/20 15:45:59;;;;;;;78.80;48.10;;;;;;;11.79;100.00;97599.29;176666;1265;46012;-81
2023/10/20 15:50:03;;;;;;;82.80;47.40;;;;;;;11.82;100.00;97576.86;176851;1268;46420;-80
2023/10/20 15:54:07;;;;;;;66.80;42.00;;;;;;;11.86;100.00;97582.64;176201;1265;46047;-80
2023/10/20 15:58:09;;;;;;;70.80;45.40;;;;;;;11.90;100.00;97572.33;176960;1264;59473;-80
2023/10/20 16:02:12;;;;;;;93.20;51.80;;;;;;;11.91;100.00;97561.95;177147;1265;46026;-80
2023/10/20 16:06:15;;;;;;;89.50;58.90;;;;;;;11.94;100.00;97565.48;176784;1265;46223;-80
2023/10/20 16:10:18;;;;;;;84.60;55.60;;;;;;;11.96;100.00;97557.90;178884;1265;44096;-79
2023/10/20 16:14:21;;;;;;;95.00;59.70;;;;;;;11.97;100.00;97550.73;177206;1265;46117;-80
2023/10/20 16:18:24;;;;;;;83.20;52.80;;;;;;;11.99;100.00;97549.89;178892;1264;57915;-79
2023/10/20 16:22:27;;;;;;;81.00;45.60;;;;;;;12.02;100.00;97569.80;178598;1266;45974;-80
2023/10/20 16:26:30;;;;;;;67.00;43.70;;;;;;;12.04;100.00;97570.09;177210;1265;46179;-80
2023/10/20 16:30:34;;;;;;;65.00;44.20;;;;;;;12.03;100.00;97565.08;178968;1266;46179;-79
2023/10/20 16:34:37;;;;;;;74.40;47.30;;;;;;;12.02;100.00;97558.48;176769;1264;47730;-79
2023/10/20 16:38:40;;;;;;;71.60;45.00;;;;;;;12.01;100.00;97567.09;178190;1264;58947;-79
2023/10/20 16:42:44;;;;;;;68.30;41.10;;;;;;;11.98;100.00;97567.46;176919;1265;46027;-80
2023/10/20 16:46:49;;;;;;;66.60;40.30;;;;;;;12.00;100.00;97582.29;178155;1265;46120;-80
2023/10/20 16:50:57;;;;;;;70.50;41.80;;;;;;;12.06;100.00;97591.95;177624;1265;45992;-79
2023/10/20 16:55:01;;;;;;;64.90;38.70;;;;;;;12.11;100.00;97575.10;178880;1264;44045;-79
2023/10/20 16:59:04;;;;;;;55.40;35.40;;;;;;;12.13;100.00;97566.66;178205;1268;59644;-78
2023/10/20 17:03:07;;;;;;;63.90;37.40;;;;;;;12.16;100.00;97574.77;177851;1265;46201;-80
2023/10/20 17:07:10;;;;;;;60.30;36.90;;;;;;;12.18;100.00;97572.73;179833;1265;44242;-79
2023/10/20 17:11:13;;;;;;;65.90;39.50;;;;;;;12.18;100.00;97562.81;176475;1265;46101;-79
2023/10/20 17:15:17;;;;;;;71.90;39.30;;;;;;;12.16;100.00;97557.56;176143;1268;46122;-80
2023/10/20 17:19:20;;;;;;;66.10;41.50;;;;;;;12.11;100.00;97560.70;176914;1265;59561;-80
2023/10/20 17:23:23;;;;;;;67.20;38.90;;;;;;;12.05;100.00;97548.13;177496;1268;46285;-80
2023/10/20 17:27:26;;;;;;;70.90;41.00;;;;;;;12.04;100.00;97569.96;176855;1266;46007;-80
2023/10/20 17:31:29;;;;;;;61.80;37.90;;;;;;;12.03;100.00;97579.52;176342;1265;46896;-80
2023/10/20 17:35:33;;;;;;;66.40;40.70;;;;;;;12.04;100.00;97585.42;178200;1265;46026;-79
2023/10/20 17:39:37;;;;;;;74.50;43.70;;;;;;;12.07;100.00;97572.43;176537;1268;58505;-80
2023/10/20 17:43:40;;;;;;;59.10;38.30;;;;;;;12.04;100.00;97570.70;177012;1265;46006;-79
2023/10/20 17:47:43;;;;;;;77.20;40.30;;;;;;;12.00;100.00;97563.67;176919;1265;46072;-79
2023/10/20 17:51:46;;;;;;;67.50;41.30;;;;;;;11.99;100.00;97557.63;178453;1265;46221;-79
2023/10/20 17:55:49;;;;;;;64.00;40.60;;;;;;;11.99;100.00;97558.95;176889;1265;46201;-79
2023/10/20 17:59:51;;;;;;;71.50;44.70;;;;;;;12.00;100.00;97574.33;178229;1265;57941;-80
2023/10/20 18:03:55;;;;;;;69.40;41.20;;;;;;;12.04;100.00;97585.83;177297;1265;46014;-79
2023/10/20 18:07:58;;;;;;;65.70;43.40;;;;;;;12.08;100.00;97576.13;179253;1268;46069;-79
2023/10/20 18:12:02;;;;;;;71.50;47.10;;;;;;;12.13;100.00;97569.77;179013;1264;46005;-79
2023/10/20 18:16:08;;;;;;;66.60;42.10;;;;;;;12.20;100.00;97579.70;179361;1265;46160;-80
2023/10/20 18:20:12;;;;;;;63.20;46.10;;;;;;;12.26;100.00;97568.84;178671;1265;60020;-80
2023/10/20 18:24:15;;;;;;;68.60;42.90;;;;;;;12.32;100.00;97563.84;177264;1265;46087;-80
2023/10/20 18:28:18;;;;;;;65.40;43.30;;;;;;;12.33;100.00;97560.44;177695;1265;46182;-80
2023/10/20 18:32:21;;;;;;;63.90;41.80;;;;;;;12.36;100.00;97571.73;178534;1266;46282;-80
2023/10/20 18:36:27;;;;;;;61.80;41.20;;;;;;;12.40;100.00;97578.71;178239;1266;46101;-80
2023/10/20 18:40:33;;;;;;;71.30;46.60;;;;;;;12.45;100.00;97589.45;178034;1266;58080;-80
2023/10/20 18:44:37;;;;;;;69.70;41.60;;;;;;;12.49;100.00;97586.29;177993;1269;46015;-79